Amsterdam, MT

5:01 AM MDT on August 21, 2014 (GMT -0600)
Helena Regional | Change Station
CLOSE
Current Station
Airport
Location: Helena,
Elevation: 3865 ft
Nearby Weather Stations

Elev 3865 ft 46.60 °N, 111.99 °W | Updated 8 minutes ago

Overcast
Overcast
55 °F
Feels Like 55 °F
N
6
Wind Variable Wind from West

Today
High -- | Low -- °F
--% Chance of Precip.
Yesterday
High -- | Low -- °F
Precip. -- in
6:32 AM 8:23 PM
Waning Crescent, 15% visible
Pressure 30.01 in
Visibility 10.0 miles
Clouds Overcast 10000 ft
Dew Point 51 °F
Humidity 86%
Rainfall 0.02 in
Snow Depth Not available.
UV 0 out of 12
Pollen 7.10 out of 12
Air Quality Not available.
Flu Activity Not available.
METAR KHLN 211053Z 28005KT 10SM OVC100 13/11 A3003 RMK AO2 SLP161 T01280106

More Conditions Fewer Conditions

Pressure 30.01 in
Visibility 10.0 miles
Clouds Overcast 10000 ft
Dew Point 51 °F
Humidity 86%
Rainfall 0.02 in
Snow Depth Not available.
UV 0 out of 12
Pollen 7.10 out of 12
Air Quality Not available.
Flu Activity Not available.
METAR KHLN 211053Z 28005KT 10SM OVC100 13/11 A3003 RMK AO2 SLP161 T01280106

More Conditions Fewer Conditions

10-Day Weather Forecast

Almanac

Astronomy

Aug. 21, 2014 Rise Set
Actual Time 6:32 AM MDT 8:23 PM MDT
Civil Twilight 6:01 AM MDT 8:54 PM MDT
Nautical Twilight 5:22 AM MDT 9:33 PM MDT
Astronomical Twilight 4:39 AM MDT 10:15 PM MDT
Moon 3:01 AM MDT 5:58 PM MDT
Length of Visible Light 14h 53m
Length of Day
13h 50m
Tomorrow will be 2m 58s shorter.
Waning Crescent, 15% of the Moon is Illuminated
Today
Waning Crescent
Aug 25
New
Sep 2
First Quarter
Sep 8
Full
Sep 15
Last Quarter

Today's Extremes

State Highs State Lows

Community

WunderPhotos

Upload Photos

1,745,872 photos uploaded!

Nearby

Snow Depth

Station Depth Elevation
Sacajawea 0 in 6550 ft
Brackett Creek 1 in 7320 ft
Shower Falls 1 in 8100 ft
Lone Mountain 0 in 8880 ft
Tizer Basin 1 in 6840 ft

Earthquake Activity

City Distance Mag. Time & Date
No recent earthquake activity has been reported nearby.
Minimum magnitude displayed is 2.5.

Coastal Water Temperatures

Place Temperature
No Stations Reporting

Nearby Weather Stations